sensor_id;sensor_type;location;lat;lon;timestamp;P1;durP1;ratioP1;P2;durP2;ratioP2
11927;SDS011;6023;47.070;15.126;2022-11-06T00:00:42;11.30;;;8.23;;
11927;SDS011;6023;47.070;15.126;2022-11-06T00:03:11;14.03;;;8.90;;
11927;SDS011;6023;47.070;15.126;2022-11-06T00:05:40;13.47;;;9.63;;
11927;SDS011;6023;47.070;15.126;2022-11-06T00:08:30;12.30;;;8.60;;
11927;SDS011;6023;47.070;15.126;2022-11-06T00:11:00;8.83;;;6.87;;
11927;SDS011;6023;47.070;15.126;2022-11-06T00:13:36;8.73;;;6.30;;
11927;SDS011;6023;47.070;15.126;2022-11-06T00:16:05;7.77;;;5.20;;
11927;SDS011;6023;47.070;15.126;2022-11-06T00:18:37;7.70;;;5.70;;
11927;SDS011;6023;47.070;15.126;2022-11-06T00:21:06;8.33;;;6.10;;
11927;SDS011;6023;47.070;15.126;2022-11-06T00:23:35;7.63;;;5.70;;
11927;SDS011;6023;47.070;15.126;2022-11-06T00:26:05;8.80;;;5.83;;
11927;SDS011;6023;47.070;15.126;2022-11-06T00:28:33;8.03;;;6.13;;
11927;SDS011;6023;47.070;15.126;2022-11-06T00:31:04;10.63;;;7.17;;
11927;SDS011;6023;47.070;15.126;2022-11-06T00:33:33;8.47;;;6.10;;
11927;SDS011;6023;47.070;15.126;2022-11-06T00:36:02;7.13;;;5.40;;
11927;SDS011;6023;47.070;15.126;2022-11-06T00:38:31;6.70;;;5.00;;
11927;SDS011;6023;47.070;15.126;2022-11-06T00:41:00;47.07;;;32.33;;
11927;SDS011;6023;47.070;15.126;2022-11-06T00:43:30;47.40;;;32.20;;
11927;SDS011;6023;47.070;15.126;2022-11-06T00:46:01;24.53;;;16.50;;
11927;SDS011;6023;47.070;15.126;2022-11-06T00:48:29;10.23;;;6.70;;
11927;SDS011;6023;47.070;15.126;2022-11-06T00:51:00;6.77;;;4.97;;
11927;SDS011;6023;47.070;15.126;2022-11-06T00:53:29;6.50;;;4.90;;
11927;SDS011;6023;47.070;15.126;2022-11-06T00:56:02;5.53;;;4.20;;
11927;SDS011;6023;47.070;15.126;2022-11-06T00:58:32;6.13;;;4.67;;
11927;SDS011;6023;47.070;15.126;2022-11-06T01:01:11;5.53;;;4.10;;
11927;SDS011;6023;47.070;15.126;2022-11-06T01:03:41;5.40;;;3.90;;
11927;SDS011;6023;47.070;15.126;2022-11-06T01:06:12;5.33;;;3.80;;
11927;SDS011;6023;47.070;15.126;2022-11-06T01:08:42;5.07;;;3.90;;
11927;SDS011;6023;47.070;15.126;2022-11-06T01:11:12;4.97;;;3.53;;
11927;SDS011;6023;47.070;15.126;2022-11-06T01:13:41;5.40;;;3.40;;
11927;SDS011;6023;47.070;15.126;2022-11-06T01:16:12;4.83;;;3.13;;
11927;SDS011;6023;47.070;15.126;2022-11-06T01:18:42;5.27;;;3.20;;
11927;SDS011;6023;47.070;15.126;2022-11-06T01:21:12;4.63;;;3.37;;
11927;SDS011;6023;47.070;15.126;2022-11-06T01:23:42;4.73;;;3.10;;
11927;SDS011;6023;47.070;15.126;2022-11-06T01:26:11;4.57;;;3.07;;
11927;SDS011;6023;47.070;15.126;2022-11-06T01:28:40;4.37;;;3.00;;
11927;SDS011;6023;47.070;15.126;2022-11-06T01:31:11;3.90;;;3.10;;
11927;SDS011;6023;47.070;15.126;2022-11-06T01:33:42;3.40;;;2.90;;
11927;SDS011;6023;47.070;15.126;2022-11-06T01:36:12;4.00;;;3.13;;
11927;SDS011;6023;47.070;15.126;2022-11-06T01:38:41;4.90;;;3.00;;
11927;SDS011;6023;47.070;15.126;2022-11-06T01:41:11;3.07;;;2.50;;
11927;SDS011;6023;47.070;15.126;2022-11-06T01:43:44;3.37;;;2.47;;
11927;SDS011;6023;47.070;15.126;2022-11-06T01:46:15;2.50;;;2.30;;
11927;SDS011;6023;47.070;15.126;2022-11-06T01:48:45;2.97;;;2.50;;
11927;SDS011;6023;47.070;15.126;2022-11-06T01:51:15;2.97;;;2.53;;
11927;SDS011;6023;47.070;15.126;2022-11-06T01:53:44;2.90;;;2.50;;
11927;SDS011;6023;47.070;15.126;2022-11-06T01:56:13;3.63;;;2.40;;
11927;SDS011;6023;47.070;15.126;2022-11-06T01:58:42;2.60;;;2.40;;
11927;SDS011;6023;47.070;15.126;2022-11-06T02:01:12;2.50;;;2.30;;
11927;SDS011;6023;47.070;15.126;2022-11-06T02:03:43;2.67;;;2.47;;
11927;SDS011;6023;47.070;15.126;2022-11-06T02:06:15;2.50;;;2.30;;
11927;SDS011;6023;47.070;15.126;2022-11-06T02:08:44;2.70;;;2.50;;
11927;SDS011;6023;47.070;15.126;2022-11-06T02:11:12;2.80;;;2.47;;
11927;SDS011;6023;47.070;15.126;2022-11-06T02:13:43;2.90;;;2.40;;
11927;SDS011;6023;47.070;15.126;2022-11-06T02:16:18;2.60;;;2.40;;
11927;SDS011;6023;47.070;15.126;2022-11-06T02:18:57;3.77;;;2.60;;
11927;SDS011;6023;47.070;15.126;2022-11-06T02:21:47;3.77;;;2.70;;
11927;SDS011;6023;47.070;15.126;2022-11-06T02:24:41;2.43;;;2.23;;
11927;SDS011;6023;47.070;15.126;2022-11-06T02:27:18;3.70;;;2.43;;
11927;SDS011;6023;47.070;15.126;2022-11-06T02:29:49;2.93;;;2.50;;
11927;SDS011;6023;47.070;15.126;2022-11-06T02:32:23;3.03;;;2.43;;
11927;SDS011;6023;47.070;15.126;2022-11-06T02:34:57;2.60;;;2.40;;
11927;SDS011;6023;47.070;15.126;2022-11-06T02:37:32;3.17;;;2.17;;
11927;SDS011;6023;47.070;15.126;2022-11-06T02:40:03;3.10;;;2.27;;
11927;SDS011;6023;47.070;15.126;2022-11-06T02:42:37;1.90;;;1.80;;
11927;SDS011;6023;47.070;15.126;2022-11-06T02:45:07;2.10;;;1.83;;
11927;SDS011;6023;47.070;15.126;2022-11-06T02:47:37;2.17;;;1.90;;
11927;SDS011;6023;47.070;15.126;2022-11-06T02:50:07;2.20;;;1.97;;
11927;SDS011;6023;47.070;15.126;2022-11-06T02:52:38;2.30;;;2.10;;
11927;SDS011;6023;47.070;15.126;2022-11-06T02:55:10;3.47;;;2.10;;
11927;SDS011;6023;47.070;15.126;2022-11-06T02:57:43;2.47;;;2.13;;
11927;SDS011;6023;47.070;15.126;2022-11-06T03:00:13;4.17;;;2.60;;
11927;SDS011;6023;47.070;15.126;2022-11-06T03:02:44;8.27;;;4.10;;
11927;SDS011;6023;47.070;15.126;2022-11-06T03:05:16;7.87;;;4.80;;
11927;SDS011;6023;47.070;15.126;2022-11-06T03:07:48;6.27;;;4.83;;
11927;SDS011;6023;47.070;15.126;2022-11-06T03:10:19;7.70;;;5.20;;
11927;SDS011;6023;47.070;15.126;2022-11-06T03:12:52;6.90;;;4.23;;
11927;SDS011;6023;47.070;15.126;2022-11-06T03:15:25;4.63;;;3.20;;
11927;SDS011;6023;47.070;15.126;2022-11-06T03:18:00;4.53;;;2.70;;
11927;SDS011;6023;47.070;15.126;2022-11-06T03:20:36;3.30;;;2.20;;
11927;SDS011;6023;47.070;15.126;2022-11-06T03:23:09;2.70;;;2.40;;
11927;SDS011;6023;47.070;15.126;2022-11-06T03:25:42;2.60;;;2.40;;
11927;SDS011;6023;47.070;15.126;2022-11-06T03:28:15;2.50;;;2.30;;
11927;SDS011;6023;47.070;15.126;2022-11-06T03:30:51;2.43;;;2.17;;
11927;SDS011;6023;47.070;15.126;2022-11-06T03:33:22;3.27;;;2.00;;
11927;SDS011;6023;47.070;15.126;2022-11-06T03:35:54;2.30;;;2.10;;
11927;SDS011;6023;47.070;15.126;2022-11-06T03:38:26;2.20;;;2.00;;
11927;SDS011;6023;47.070;15.126;2022-11-06T03:40:57;2.77;;;2.20;;
11927;SDS011;6023;47.070;15.126;2022-11-06T03:43:29;3.47;;;2.40;;
11927;SDS011;6023;47.070;15.126;2022-11-06T03:46:01;2.37;;;2.10;;
11927;SDS011;6023;47.070;15.126;2022-11-06T03:48:33;3.93;;;2.77;;
11927;SDS011;6023;47.070;15.126;2022-11-06T03:51:05;3.67;;;3.20;;
11927;SDS011;6023;47.070;15.126;2022-11-06T03:53:37;4.60;;;3.83;;
11927;SDS011;6023;47.070;15.126;2022-11-06T03:56:09;4.93;;;3.97;;
11927;SDS011;6023;47.070;15.126;2022-11-06T03:58:43;4.17;;;3.20;;
11927;SDS011;6023;47.070;15.126;2022-11-06T04:01:14;4.13;;;3.60;;
11927;SDS011;6023;47.070;15.126;2022-11-06T04:03:53;3.67;;;2.77;;
11927;SDS011;6023;47.070;15.126;2022-11-06T04:06:26;3.00;;;2.70;;
11927;SDS011;6023;47.070;15.126;2022-11-06T04:08:59;2.50;;;2.30;;
11927;SDS011;6023;47.070;15.126;2022-11-06T04:11:48;3.23;;;2.70;;
11927;SDS011;6023;47.070;15.126;2022-11-06T04:14:37;2.70;;;2.50;;
11927;SDS011;6023;47.070;15.126;2022-11-06T04:17:07;2.53;;;2.20;;
11927;SDS011;6023;47.070;15.126;2022-11-06T04:19:37;2.63;;;2.40;;
11927;SDS011;6023;47.070;15.126;2022-11-06T04:22:13;2.83;;;2.30;;
11927;SDS011;6023;47.070;15.126;2022-11-06T04:24:53;2.17;;;1.97;;
11927;SDS011;6023;47.070;15.126;2022-11-06T04:27:50;3.40;;;2.33;;
11927;SDS011;6023;47.070;15.126;2022-11-06T04:30:28;4.17;;;2.73;;
11927;SDS011;6023;47.070;15.126;2022-11-06T04:33:04;4.63;;;3.60;;
11927;SDS011;6023;47.070;15.126;2022-11-06T04:35:36;4.77;;;3.90;;
11927;SDS011;6023;47.070;15.126;2022-11-06T04:38:15;4.90;;;3.00;;
11927;SDS011;6023;47.070;15.126;2022-11-06T04:40:50;4.20;;;2.80;;
11927;SDS011;6023;47.070;15.126;2022-11-06T04:43:22;3.37;;;2.70;;
11927;SDS011;6023;47.070;15.126;2022-11-06T04:45:55;3.63;;;2.53;;
11927;SDS011;6023;47.070;15.126;2022-11-06T04:48:26;2.63;;;2.40;;
11927;SDS011;6023;47.070;15.126;2022-11-06T04:50:57;2.60;;;2.40;;
11927;SDS011;6023;47.070;15.126;2022-11-06T04:53:28;2.60;;;2.40;;
11927;SDS011;6023;47.070;15.126;2022-11-06T04:55:59;3.10;;;2.53;;
11927;SDS011;6023;47.070;15.126;2022-11-06T04:58:28;3.00;;;2.57;;
11927;SDS011;6023;47.070;15.126;2022-11-06T05:00:58;2.53;;;2.33;;
11927;SDS011;6023;47.070;15.126;2022-11-06T05:03:27;3.00;;;2.70;;
11927;SDS011;6023;47.070;15.126;2022-11-06T05:05:55;2.50;;;2.30;;
11927;SDS011;6023;47.070;15.126;2022-11-06T05:08:24;2.60;;;2.40;;
11927;SDS011;6023;47.070;15.126;2022-11-06T05:10:52;2.83;;;2.53;;
11927;SDS011;6023;47.070;15.126;2022-11-06T05:13:21;2.43;;;2.20;;
11927;SDS011;6023;47.070;15.126;2022-11-06T05:15:53;2.57;;;2.37;;
11927;SDS011;6023;47.070;15.126;2022-11-06T05:18:24;2.23;;;1.97;;
11927;SDS011;6023;47.070;15.126;2022-11-06T05:20:53;3.23;;;2.27;;
11927;SDS011;6023;47.070;15.126;2022-11-06T05:23:36;2.43;;;2.20;;
11927;SDS011;6023;47.070;15.126;2022-11-06T05:26:05;2.20;;;2.00;;
11927;SDS011;6023;47.070;15.126;2022-11-06T05:28:33;2.53;;;2.30;;
11927;SDS011;6023;47.070;15.126;2022-11-06T05:31:02;2.30;;;2.10;;
11927;SDS011;6023;47.070;15.126;2022-11-06T05:33:32;2.20;;;2.00;;
11927;SDS011;6023;47.070;15.126;2022-11-06T05:36:01;2.90;;;2.07;;
11927;SDS011;6023;47.070;15.126;2022-11-06T05:38:30;2.77;;;2.17;;
11927;SDS011;6023;47.070;15.126;2022-11-06T05:40:59;2.10;;;1.90;;
11927;SDS011;6023;47.070;15.126;2022-11-06T05:43:28;2.37;;;2.17;;
11927;SDS011;6023;47.070;15.126;2022-11-06T05:45:56;2.20;;;1.97;;
11927;SDS011;6023;47.070;15.126;2022-11-06T05:48:26;2.20;;;2.00;;
11927;SDS011;6023;47.070;15.126;2022-11-06T05:51:00;2.00;;;1.90;;
11927;SDS011;6023;47.070;15.126;2022-11-06T05:53:28;2.27;;;1.70;;
11927;SDS011;6023;47.070;15.126;2022-11-06T05:55:57;2.43;;;1.80;;
11927;SDS011;6023;47.070;15.126;2022-11-06T05:58:26;2.30;;;2.10;;
11927;SDS011;6023;47.070;15.126;2022-11-06T06:00:55;2.67;;;1.70;;
11927;SDS011;6023;47.070;15.126;2022-11-06T06:03:24;2.10;;;1.90;;
11927;SDS011;6023;47.070;15.126;2022-11-06T06:05:53;2.20;;;2.00;;
11927;SDS011;6023;47.070;15.126;2022-11-06T06:08:23;2.33;;;2.00;;
11927;SDS011;6023;47.070;15.126;2022-11-06T06:10:52;2.77;;;2.00;;
11927;SDS011;6023;47.070;15.126;2022-11-06T06:13:20;2.23;;;2.00;;
11927;SDS011;6023;47.070;15.126;2022-11-06T06:15:48;3.40;;;2.27;;
11927;SDS011;6023;47.070;15.126;2022-11-06T06:18:17;2.60;;;2.23;;
11927;SDS011;6023;47.070;15.126;2022-11-06T06:20:45;2.50;;;2.30;;
11927;SDS011;6023;47.070;15.126;2022-11-06T06:23:14;3.13;;;2.27;;
11927;SDS011;6023;47.070;15.126;2022-11-06T06:25:44;2.70;;;2.50;;
11927;SDS011;6023;47.070;15.126;2022-11-06T06:28:12;2.90;;;2.60;;
11927;SDS011;6023;47.070;15.126;2022-11-06T06:30:41;12.87;;;11.23;;
11927;SDS011;6023;47.070;15.126;2022-11-06T06:33:10;12.97;;;10.07;;
11927;SDS011;6023;47.070;15.126;2022-11-06T06:35:38;17.80;;;13.20;;
11927;SDS011;6023;47.070;15.126;2022-11-06T06:38:07;6.27;;;4.57;;
11927;SDS011;6023;47.070;15.126;2022-11-06T06:40:35;4.43;;;2.83;;
11927;SDS011;6023;47.070;15.126;2022-11-06T06:43:05;3.30;;;3.00;;
11927;SDS011;6023;47.070;15.126;2022-11-06T06:45:34;3.20;;;2.90;;
11927;SDS011;6023;47.070;15.126;2022-11-06T06:48:02;3.70;;;3.20;;
11927;SDS011;6023;47.070;15.126;2022-11-06T06:50:32;5.97;;;4.67;;
11927;SDS011;6023;47.070;15.126;2022-11-06T06:53:00;5.80;;;4.80;;
11927;SDS011;6023;47.070;15.126;2022-11-06T06:55:29;4.73;;;4.07;;
11927;SDS011;6023;47.070;15.126;2022-11-06T06:57:58;4.20;;;3.80;;
11927;SDS011;6023;47.070;15.126;2022-11-06T07:00:28;5.90;;;4.80;;
11927;SDS011;6023;47.070;15.126;2022-11-06T07:02:57;5.70;;;4.30;;
11927;SDS011;6023;47.070;15.126;2022-11-06T07:05:25;6.90;;;4.70;;
11927;SDS011;6023;47.070;15.126;2022-11-06T07:07:54;5.97;;;4.73;;
11927;SDS011;6023;47.070;15.126;2022-11-06T07:10:22;6.20;;;4.37;;
11927;SDS011;6023;47.070;15.126;2022-11-06T07:12:51;6.63;;;4.90;;
11927;SDS011;6023;47.070;15.126;2022-11-06T07:15:19;6.53;;;4.70;;
11927;SDS011;6023;47.070;15.126;2022-11-06T07:17:49;8.27;;;5.50;;
11927;SDS011;6023;47.070;15.126;2022-11-06T07:20:17;6.23;;;5.10;;
11927;SDS011;6023;47.070;15.126;2022-11-06T07:22:46;6.90;;;4.87;;
11927;SDS011;6023;47.070;15.126;2022-11-06T07:25:14;5.43;;;4.00;;
11927;SDS011;6023;47.070;15.126;2022-11-06T07:27:43;5.17;;;3.57;;
11927;SDS011;6023;47.070;15.126;2022-11-06T07:30:11;5.90;;;4.37;;
11927;SDS011;6023;47.070;15.126;2022-11-06T07:32:40;11.97;;;7.53;;
11927;SDS011;6023;47.070;15.126;2022-11-06T07:35:10;27.07;;;19.67;;
11927;SDS011;6023;47.070;15.126;2022-11-06T07:37:39;23.60;;;16.13;;
11927;SDS011;6023;47.070;15.126;2022-11-06T07:40:08;15.53;;;11.83;;
11927;SDS011;6023;47.070;15.126;2022-11-06T07:42:37;6.97;;;5.27;;
11927;SDS011;6023;47.070;15.126;2022-11-06T07:45:09;5.97;;;4.50;;
11927;SDS011;6023;47.070;15.126;2022-11-06T07:47:38;6.90;;;5.03;;
11927;SDS011;6023;47.070;15.126;2022-11-06T07:50:06;7.87;;;5.60;;
11927;SDS011;6023;47.070;15.126;2022-11-06T07:52:36;8.20;;;5.80;;
11927;SDS011;6023;47.070;15.126;2022-11-06T07:55:05;9.40;;;7.13;;
11927;SDS011;6023;47.070;15.126;2022-11-06T07:57:34;9.37;;;6.93;;
11927;SDS011;6023;47.070;15.126;2022-11-06T08:00:04;7.73;;;6.93;;
11927;SDS011;6023;47.070;15.126;2022-11-06T08:02:33;7.43;;;6.30;;
11927;SDS011;6023;47.070;15.126;2022-11-06T08:05:02;8.40;;;6.60;;
11927;SDS011;6023;47.070;15.126;2022-11-06T08:07:31;7.87;;;6.27;;
11927;SDS011;6023;47.070;15.126;2022-11-06T08:10:01;8.27;;;6.10;;
11927;SDS011;6023;47.070;15.126;2022-11-06T08:12:30;8.00;;;6.50;;
11927;SDS011;6023;47.070;15.126;2022-11-06T08:14:58;8.47;;;6.77;;
11927;SDS011;6023;47.070;15.126;2022-11-06T08:17:27;9.17;;;6.80;;
11927;SDS011;6023;47.070;15.126;2022-11-06T08:19:57;9.03;;;7.20;;
11927;SDS011;6023;47.070;15.126;2022-11-06T08:22:26;9.77;;;7.00;;
11927;SDS011;6023;47.070;15.126;2022-11-06T08:24:54;9.83;;;7.47;;
11927;SDS011;6023;47.070;15.126;2022-11-06T08:27:24;9.50;;;6.87;;
11927;SDS011;6023;47.070;15.126;2022-11-06T08:29:52;9.47;;;6.67;;
11927;SDS011;6023;47.070;15.126;2022-11-06T08:32:21;9.37;;;6.33;;
11927;SDS011;6023;47.070;15.126;2022-11-06T08:34:49;9.30;;;6.07;;
11927;SDS011;6023;47.070;15.126;2022-11-06T08:37:18;9.53;;;5.70;;
11927;SDS011;6023;47.070;15.126;2022-11-06T08:39:47;6.83;;;5.30;;
11927;SDS011;6023;47.070;15.126;2022-11-06T08:42:15;7.47;;;5.60;;
11927;SDS011;6023;47.070;15.126;2022-11-06T08:44:45;9.53;;;6.00;;
11927;SDS011;6023;47.070;15.126;2022-11-06T08:47:14;7.63;;;5.30;;
11927;SDS011;6023;47.070;15.126;2022-11-06T08:49:42;6.63;;;5.23;;
11927;SDS011;6023;47.070;15.126;2022-11-06T08:52:11;8.53;;;6.50;;
11927;SDS011;6023;47.070;15.126;2022-11-06T08:54:39;9.50;;;7.30;;
11927;SDS011;6023;47.070;15.126;2022-11-06T08:57:08;9.10;;;6.90;;
11927;SDS011;6023;47.070;15.126;2022-11-06T08:59:36;8.03;;;5.60;;
11927;SDS011;6023;47.070;15.126;2022-11-06T09:02:08;5.50;;;4.30;;
11927;SDS011;6023;47.070;15.126;2022-11-06T09:04:38;5.73;;;4.40;;
11927;SDS011;6023;47.070;15.126;2022-11-06T09:07:07;4.83;;;4.20;;
11927;SDS011;6023;47.070;15.126;2022-11-06T09:09:36;7.10;;;4.60;;
11927;SDS011;6023;47.070;15.126;2022-11-06T09:12:05;5.83;;;4.50;;
11927;SDS011;6023;47.070;15.126;2022-11-06T09:14:34;7.53;;;4.50;;
11927;SDS011;6023;47.070;15.126;2022-11-06T09:17:02;6.77;;;4.30;;
11927;SDS011;6023;47.070;15.126;2022-11-06T09:19:32;9.47;;;6.13;;
11927;SDS011;6023;47.070;15.126;2022-11-06T09:22:01;9.10;;;5.50;;
11927;SDS011;6023;47.070;15.126;2022-11-06T09:24:29;8.13;;;5.47;;
11927;SDS011;6023;47.070;15.126;2022-11-06T09:27:18;7.20;;;5.00;;
11927;SDS011;6023;47.070;15.126;2022-11-06T09:29:46;6.53;;;4.13;;
11927;SDS011;6023;47.070;15.126;2022-11-06T09:32:15;9.30;;;4.30;;
11927;SDS011;6023;47.070;15.126;2022-11-06T09:34:45;7.03;;;4.40;;
11927;SDS011;6023;47.070;15.126;2022-11-06T09:37:14;5.50;;;4.00;;
11927;SDS011;6023;47.070;15.126;2022-11-06T09:39:42;4.57;;;3.40;;
11927;SDS011;6023;47.070;15.126;2022-11-06T09:42:13;9.67;;;7.43;;
11927;SDS011;6023;47.070;15.126;2022-11-06T09:44:51;13.43;;;10.87;;
11927;SDS011;6023;47.070;15.126;2022-11-06T09:47:25;6.33;;;4.80;;
11927;SDS011;6023;47.070;15.126;2022-11-06T09:49:58;4.37;;;3.17;;
11927;SDS011;6023;47.070;15.126;2022-11-06T09:52:29;3.37;;;2.83;;
11927;SDS011;6023;47.070;15.126;2022-11-06T09:54:59;3.17;;;2.87;;
11927;SDS011;6023;47.070;15.126;2022-11-06T09:57:32;4.23;;;2.87;;
11927;SDS011;6023;47.070;15.126;2022-11-06T10:00:03;3.30;;;2.93;;
11927;SDS011;6023;47.070;15.126;2022-11-06T10:02:33;3.70;;;2.80;;
11927;SDS011;6023;47.070;15.126;2022-11-06T10:05:10;3.10;;;2.80;;
11927;SDS011;6023;47.070;15.126;2022-11-06T10:07:41;4.00;;;3.10;;
11927;SDS011;6023;47.070;15.126;2022-11-06T10:10:12;3.00;;;2.50;;
11927;SDS011;6023;47.070;15.126;2022-11-06T10:12:48;3.30;;;2.70;;
11927;SDS011;6023;47.070;15.126;2022-11-06T10:15:22;3.50;;;2.70;;
11927;SDS011;6023;47.070;15.126;2022-11-06T10:17:55;2.50;;;2.20;;
11927;SDS011;6023;47.070;15.126;2022-11-06T10:20:30;2.53;;;2.10;;
11927;SDS011;6023;47.070;15.126;2022-11-06T10:23:02;2.07;;;1.83;;
11927;SDS011;6023;47.070;15.126;2022-11-06T10:28:25;5.83;;;2.47;;
11927;SDS011;6023;47.070;15.126;2022-11-06T10:31:06;2.63;;;2.10;;
11927;SDS011;6023;47.070;15.126;2022-11-06T10:33:43;1.70;;;1.60;;
11927;SDS011;6023;47.070;15.126;2022-11-06T10:36:21;1.43;;;1.33;;
11927;SDS011;6023;47.070;15.126;2022-11-06T10:38:51;1.67;;;1.50;;
11927;SDS011;6023;47.070;15.126;2022-11-06T10:41:23;1.40;;;1.30;;
11927;SDS011;6023;47.070;15.126;2022-11-06T10:43:53;1.77;;;1.43;;
11927;SDS011;6023;47.070;15.126;2022-11-06T10:46:25;2.90;;;2.07;;
11927;SDS011;6023;47.070;15.126;2022-11-06T10:48:57;15.10;;;12.70;;
11927;SDS011;6023;47.070;15.126;2022-11-06T10:51:31;5.47;;;4.20;;
11927;SDS011;6023;47.070;15.126;2022-11-06T10:54:12;2.00;;;1.80;;
11927;SDS011;6023;47.070;15.126;2022-11-06T10:56:52;2.10;;;1.90;;
11927;SDS011;6023;47.070;15.126;2022-11-06T10:59:27;2.03;;;1.70;;
11927;SDS011;6023;47.070;15.126;2022-11-06T11:01:55;2.50;;;2.30;;
11927;SDS011;6023;47.070;15.126;2022-11-06T11:04:24;2.07;;;1.80;;
11927;SDS011;6023;47.070;15.126;2022-11-06T11:06:54;2.60;;;1.50;;
11927;SDS011;6023;47.070;15.126;2022-11-06T11:09:26;1.20;;;1.10;;
11927;SDS011;6023;47.070;15.126;2022-11-06T11:11:56;1.07;;;1.07;;
11927;SDS011;6023;47.070;15.126;2022-11-06T11:14:25;3.53;;;2.50;;
11927;SDS011;6023;47.070;15.126;2022-11-06T11:16:54;2.63;;;2.00;;
11927;SDS011;6023;47.070;15.126;2022-11-06T11:19:32;2.47;;;2.10;;
11927;SDS011;6023;47.070;15.126;2022-11-06T11:22:03;1.10;;;1.10;;
11927;SDS011;6023;47.070;15.126;2022-11-06T11:24:37;1.43;;;1.33;;
11927;SDS011;6023;47.070;15.126;2022-11-06T11:27:26;1.50;;;1.40;;
11927;SDS011;6023;47.070;15.126;2022-11-06T11:29:59;1.40;;;1.30;;
11927;SDS011;6023;47.070;15.126;2022-11-06T11:32:30;1.30;;;1.20;;
11927;SDS011;6023;47.070;15.126;2022-11-06T11:34:59;1.80;;;1.70;;
11927;SDS011;6023;47.070;15.126;2022-11-06T11:37:30;2.57;;;2.37;;
11927;SDS011;6023;47.070;15.126;2022-11-06T11:40:17;2.50;;;2.30;;
11927;SDS011;6023;47.070;15.126;2022-11-06T11:42:48;1.80;;;1.70;;
11927;SDS011;6023;47.070;15.126;2022-11-06T11:45:19;2.53;;;2.30;;
11927;SDS011;6023;47.070;15.126;2022-11-06T11:47:48;7.17;;;6.33;;
11927;SDS011;6023;47.070;15.126;2022-11-06T11:50:23;7.30;;;6.43;;
11927;SDS011;6023;47.070;15.126;2022-11-06T11:52:57;5.10;;;4.10;;
11927;SDS011;6023;47.070;15.126;2022-11-06T11:55:35;4.83;;;4.20;;
11927;SDS011;6023;47.070;15.126;2022-11-06T11:58:13;2.70;;;2.50;;
11927;SDS011;6023;47.070;15.126;2022-11-06T12:00:53;5.97;;;5.20;;
11927;SDS011;6023;47.070;15.126;2022-11-06T12:03:24;3.27;;;2.80;;
11927;SDS011;6023;47.070;15.126;2022-11-06T12:06:02;2.00;;;1.40;;
11927;SDS011;6023;47.070;15.126;2022-11-06T12:08:33;1.50;;;1.40;;
11927;SDS011;6023;47.070;15.126;2022-11-06T12:11:02;2.33;;;2.13;;
11927;SDS011;6023;47.070;15.126;2022-11-06T12:13:31;5.17;;;4.50;;
11927;SDS011;6023;47.070;15.126;2022-11-06T12:16:01;2.20;;;2.00;;
11927;SDS011;6023;47.070;15.126;2022-11-06T12:18:32;9.60;;;7.50;;
11927;SDS011;6023;47.070;15.126;2022-11-06T12:21:02;4.13;;;2.97;;
11927;SDS011;6023;47.070;15.126;2022-11-06T12:23:35;8.57;;;5.60;;
11927;SDS011;6023;47.070;15.126;2022-11-06T12:26:08;3.30;;;3.00;;
11927;SDS011;6023;47.070;15.126;2022-11-06T12:28:52;1.27;;;1.17;;
11927;SDS011;6023;47.070;15.126;2022-11-06T12:31:31;1.40;;;1.30;;
11927;SDS011;6023;47.070;15.126;2022-11-06T12:34:06;4.27;;;3.13;;
11927;SDS011;6023;47.070;15.126;2022-11-06T12:36:44;1.40;;;1.30;;
11927;SDS011;6023;47.070;15.126;2022-11-06T12:39:19;1.03;;;1.03;;
11927;SDS011;6023;47.070;15.126;2022-11-06T12:41:50;1.00;;;0.90;;
11927;SDS011;6023;47.070;15.126;2022-11-06T12:44:22;62.67;;;16.13;;
11927;SDS011;6023;47.070;15.126;2022-11-06T12:46:51;78.97;;;21.83;;
11927;SDS011;6023;47.070;15.126;2022-11-06T12:49:31;12.00;;;7.83;;
11927;SDS011;6023;47.070;15.126;2022-11-06T12:52:13;1.97;;;1.87;;
11927;SDS011;6023;47.070;15.126;2022-11-06T12:55:02;7.90;;;6.73;;
11927;SDS011;6023;47.070;15.126;2022-11-06T12:57:57;11.53;;;9.80;;
11927;SDS011;6023;47.070;15.126;2022-11-06T13:00:46;3.97;;;3.10;;
11927;SDS011;6023;47.070;15.126;2022-11-06T13:03:27;4.03;;;3.10;;
11927;SDS011;6023;47.070;15.126;2022-11-06T13:06:05;1.40;;;1.30;;
11927;SDS011;6023;47.070;15.126;2022-11-06T13:08:40;1.07;;;1.07;;
11927;SDS011;6023;47.070;15.126;2022-11-06T13:11:19;1.30;;;1.20;;
11927;SDS011;6023;47.070;15.126;2022-11-06T13:13:55;1.30;;;1.20;;
11927;SDS011;6023;47.070;15.126;2022-11-06T13:16:32;1.60;;;1.50;;
11927;SDS011;6023;47.070;15.126;2022-11-06T13:19:07;1.10;;;1.00;;
11927;SDS011;6023;47.070;15.126;2022-11-06T13:21:53;6.20;;;4.73;;
11927;SDS011;6023;47.070;15.126;2022-11-06T13:24:32;3.53;;;1.80;;
11927;SDS011;6023;47.070;15.126;2022-11-06T13:27:06;1.00;;;1.00;;
11927;SDS011;6023;47.070;15.126;2022-11-06T13:29:40;0.70;;;0.70;;
11927;SDS011;6023;47.070;15.126;2022-11-06T13:32:09;1.47;;;1.23;;
11927;SDS011;6023;47.070;15.126;2022-11-06T13:34:40;1.20;;;1.10;;
11927;SDS011;6023;47.070;15.126;2022-11-06T13:37:11;1.23;;;1.20;;
11927;SDS011;6023;47.070;15.126;2022-11-06T13:39:42;1.77;;;1.20;;
11927;SDS011;6023;47.070;15.126;2022-11-06T13:42:18;1.20;;;1.10;;
11927;SDS011;6023;47.070;15.126;2022-11-06T13:44:49;1.00;;;1.00;;
11927;SDS011;6023;47.070;15.126;2022-11-06T13:47:18;1.13;;;0.97;;
11927;SDS011;6023;47.070;15.126;2022-11-06T13:49:54;1.93;;;1.20;;
11927;SDS011;6023;47.070;15.126;2022-11-06T13:52:28;1.43;;;1.33;;
11927;SDS011;6023;47.070;15.126;2022-11-06T13:55:03;1.20;;;1.10;;
11927;SDS011;6023;47.070;15.126;2022-11-06T14:00:47;3.00;;;1.50;;
11927;SDS011;6023;47.070;15.126;2022-11-06T14:06:31;1.83;;;1.73;;
11927;SDS011;6023;47.070;15.126;2022-11-06T14:09:03;2.30;;;2.03;;
11927;SDS011;6023;47.070;15.126;2022-11-06T14:11:33;1.93;;;1.80;;
11927;SDS011;6023;47.070;15.126;2022-11-06T14:14:04;11.23;;;8.33;;
11927;SDS011;6023;47.070;15.126;2022-11-06T14:16:36;2.47;;;2.27;;
11927;SDS011;6023;47.070;15.126;2022-11-06T14:19:06;2.37;;;2.07;;
11927;SDS011;6023;47.070;15.126;2022-11-06T14:27:10;1.50;;;1.40;;
11927;SDS011;6023;47.070;15.126;2022-11-06T14:32:45;1.27;;;1.27;;
11927;SDS011;6023;47.070;15.126;2022-11-06T14:41:24;1.60;;;1.50;;
11927;SDS011;6023;47.070;15.126;2022-11-06T14:44:15;1.77;;;1.67;;
11927;SDS011;6023;47.070;15.126;2022-11-06T14:47:00;7.70;;;4.10;;
11927;SDS011;6023;47.070;15.126;2022-11-06T14:49:34;6.03;;;3.30;;
11927;SDS011;6023;47.070;15.126;2022-11-06T14:52:07;2.37;;;1.90;;
11927;SDS011;6023;47.070;15.126;2022-11-06T14:54:38;3.67;;;2.60;;
11927;SDS011;6023;47.070;15.126;2022-11-06T14:57:10;21.53;;;14.63;;
11927;SDS011;6023;47.070;15.126;2022-11-06T14:59:42;7.17;;;3.90;;
11927;SDS011;6023;47.070;15.126;2022-11-06T15:02:14;5.73;;;3.50;;
11927;SDS011;6023;47.070;15.126;2022-11-06T15:04:47;5.70;;;3.70;;
11927;SDS011;6023;47.070;15.126;2022-11-06T15:07:26;5.77;;;3.50;;
11927;SDS011;6023;47.070;15.126;2022-11-06T15:13:21;6.07;;;3.97;;
11927;SDS011;6023;47.070;15.126;2022-11-06T15:16:04;5.97;;;3.70;;
11927;SDS011;6023;47.070;15.126;2022-11-06T15:18:37;5.90;;;3.30;;
11927;SDS011;6023;47.070;15.126;2022-11-06T15:21:08;29.63;;;22.77;;
11927;SDS011;6023;47.070;15.126;2022-11-06T15:23:48;6.90;;;4.90;;
11927;SDS011;6023;47.070;15.126;2022-11-06T15:26:25;7.30;;;4.30;;
11927;SDS011;6023;47.070;15.126;2022-11-06T15:29:02;5.20;;;3.83;;
11927;SDS011;6023;47.070;15.126;2022-11-06T15:31:38;5.63;;;3.87;;
11927;SDS011;6023;47.070;15.126;2022-11-06T15:34:11;3.97;;;2.80;;
11927;SDS011;6023;47.070;15.126;2022-11-06T15:36:45;2.83;;;2.40;;
11927;SDS011;6023;47.070;15.126;2022-11-06T15:39:28;6.93;;;4.77;;
11927;SDS011;6023;47.070;15.126;2022-11-06T15:41:59;6.77;;;4.87;;